Markleton, Pennsylvania
Current Conditions -  °F | °C
As of 3:55 AM on Wednesday 28 Jan 2015 (Local Time) from K2G9 Reporting Station
Light Snow Light Snow  
Wind Chill: -3°   Ceiling: 700
Heat Index:   Visibility: 4mi
Dew Point:   Wind: 6mph
Humidity: 85%   Direction: 290°WNW
Pressure: 30.06"   Gusts: NA
Location:  39.86°N, 79.23°W
Report Text: K2G9 280855Z AUTO 29005KT 4SM -SN OVC007 M14/M16 A3006 RMK AO2
Loading
Personal Weather Stations






























Interactive Weather Map New forecast layout! Learn more

10-Day Weather Forecast

Advertisements
Track Severe Weather on mobile